KGAG/GAG METAR and TAF weather

Enter ICAO airport designator
Station Type Date Time Source
KGAG METAR 2023/01/30 11:53 UTC NOAA

KGAG 301153Z AUTO 01014KT 10SM OVC020 M12/M17 A3034 RMK AO2 SLP309 T11171167 11111 21117 50003


Station Type Date Time Source
KGAG Decoded METAR 2023/01/30 11:53 UTC NOAA

GAGE AIRPORT, OK, United States (KGAG) 36-18N 99-46W 668M
Jan 30, 2023 - 06:53 AM EST / 2023.01.30 1153 UTC
Wind: from the N (010 degrees) at 16 MPH (14 KT):0
Visibility: 10 mile(s):0
Sky conditions: overcast
Temperature: 10.9 F (-11.7 C)
Windchill: -5 F (-21 C):2
Dew Point: 1.9 F (-16.7 C)
Relative Humidity: 66%
Pressure (altimeter): 30.34 in. Hg (1027 hPa)
Pressure tendency: 0.01 inches (0.3 hPa) higher than three hours ago
ob: KGAG 301153Z AUTO 01014KT 10SM OVC020 M12/M17 A3034 RMK AO2 SLP309 T11171167 11111 21117 50003
cycle: 12

Station Type Date Time Source
KGAG TAF 2018/03/21 06:22 UTC NOAA

TAF KGAG 210520Z 2106/2206 VRB04KT P6SM SCT250
FM211300 16008KT P6SM SCT250
FM211800 18012G22KT P6SM BKN250

Example: see airport list